createdAt,value
2019-05-13T00:00:15.919Z,102967.85
2019-05-13T00:02:44.329Z,102968.09
2019-05-13T00:05:14.709Z,102966.17
2019-05-13T00:07:43.786Z,102964.58
2019-05-13T00:10:14.790Z,102967.17
2019-05-13T00:12:44.584Z,102581.50
2019-05-13T00:15:14.192Z,102968.65
2019-05-13T00:17:44.585Z,102972.97
2019-05-13T00:20:14.095Z,102967.09
2019-05-13T00:22:44.719Z,102969.01
2019-05-13T00:25:14.541Z,102971.12
2019-05-13T00:27:44.488Z,102966.73
2019-05-13T00:30:14.506Z,102966.73
2019-05-13T00:32:44.601Z,102962.06
2019-05-13T00:35:14.273Z,102967.17
2019-05-13T00:37:44.342Z,102968.92
2019-05-13T00:40:14.468Z,102964.45
2019-05-13T00:42:44.072Z,102966.97
2019-05-13T00:45:14.612Z,102969.72
2019-05-13T00:47:43.753Z,102971.48
2019-05-13T00:50:14.233Z,102969.13
2019-05-13T00:52:44.882Z,102967.36
2019-05-13T00:55:14.755Z,102964.97
2019-05-13T00:57:43.960Z,102962.94
2019-05-13T01:00:14.173Z,102962.78
2019-05-13T01:02:44.669Z,102960.94
2019-05-13T01:05:14.632Z,102961.80
2019-05-13T01:07:44.542Z,102959.66
2019-05-13T01:10:14.347Z,102958.30
2019-05-13T01:12:44.075Z,102960.48
2019-05-13T01:15:14.361Z,102954.19
2019-05-13T01:17:44.751Z,102960.63
2019-05-13T01:20:15.128Z,102961.17
2019-05-13T01:22:44.217Z,102954.91
2019-05-13T01:25:14.508Z,102959.70
2019-05-13T01:27:44.146Z,102955.59
2019-05-13T01:30:13.429Z,102956.58
2019-05-13T01:32:44.570Z,102966.00
2019-05-13T01:35:14.614Z,102960.29
2019-05-13T01:37:45.925Z,102955.00
2019-05-13T01:40:13.595Z,102964.09
2019-05-13T01:42:44.313Z,102960.76
2019-05-13T01:45:13.678Z,102956.03
2019-05-13T01:47:44.113Z,102957.34
2019-05-13T01:50:14.380Z,102959.80
2019-05-13T01:52:44.643Z,102962.95
2019-05-13T01:55:14.763Z,102963.20
2019-05-13T01:57:44.387Z,102959.45
2019-05-13T02:00:14.274Z,102962.66
2019-05-13T02:02:44.583Z,102966.71
2019-05-13T02:05:14.203Z,102968.91
2019-05-13T02:07:54.466Z,102973.62
2019-05-13T02:10:16.033Z,102973.31
2019-05-13T02:12:44.997Z,102985.78
2019-05-13T02:15:14.767Z,102984.27
2019-05-13T02:17:44.647Z,102981.86
2019-05-13T02:20:14.720Z,102975.97
2019-05-13T02:22:44.476Z,102975.87
2019-05-13T02:25:13.975Z,102977.25
2019-05-13T02:27:43.985Z,102991.16
2019-05-13T02:30:16.299Z,102996.66
2019-05-13T02:32:43.907Z,103004.84
2019-05-13T02:35:14.121Z,102999.85
2019-05-13T02:37:43.840Z,103001.12
2019-05-13T02:40:13.868Z,102999.06
2019-05-13T02:42:43.551Z,103001.80
2019-05-13T02:45:13.216Z,103004.46
2019-05-13T02:47:44.396Z,103000.05
2019-05-13T02:50:13.355Z,103000.72
2019-05-13T02:52:44.346Z,103004.86
2019-05-13T02:55:12.860Z,103000.38
2019-05-13T02:57:43.624Z,103002.42
2019-05-13T03:00:13.149Z,103003.72
2019-05-13T03:02:43.966Z,103005.33
2019-05-13T03:05:13.611Z,103001.05
2019-05-13T03:07:42.834Z,103005.30
2019-05-13T03:10:13.603Z,103005.39
2019-05-13T03:12:42.814Z,103008.72
2019-05-13T03:15:13.323Z,103012.34
2019-05-13T03:17:52.663Z,103009.11
2019-05-13T03:20:23.034Z,103014.25
2019-05-13T03:22:52.629Z,103016.36
2019-05-13T03:25:22.619Z,103022.06
2019-05-13T03:27:53.940Z,103026.98
2019-05-13T03:30:25.239Z,103028.12
2019-05-13T03:32:58.900Z,103031.70
2019-05-13T03:35:27.138Z,103036.70
2019-05-13T03:37:53.133Z,103031.03
2019-05-13T03:40:23.218Z,103032.41
2019-05-13T03:42:53.662Z,103034.11
2019-05-13T03:45:24.561Z,103033.89
2019-05-13T03:47:54.729Z,103040.03
2019-05-13T03:50:23.121Z,103046.79
2019-05-13T03:52:52.549Z,103044.72
2019-05-13T03:55:23.180Z,103047.88
2019-05-13T03:57:53.263Z,103044.06
2019-05-13T04:00:23.595Z,103043.25
2019-05-13T04:02:53.173Z,103052.68
2019-05-13T04:05:23.302Z,103049.16
2019-05-13T04:07:52.600Z,103058.13
2019-05-13T04:10:22.870Z,103053.45
2019-05-13T04:12:52.884Z,103057.37
2019-05-13T04:15:23.499Z,103060.27
2019-05-13T04:17:53.352Z,103064.64
2019-05-13T04:20:23.403Z,103072.71
2019-05-13T04:22:53.246Z,103079.03
2019-05-13T04:25:23.290Z,103077.38
2019-05-13T04:27:53.410Z,103075.62
2019-05-13T04:30:22.617Z,103076.67
2019-05-13T04:32:53.291Z,103076.47
2019-05-13T04:35:23.401Z,103070.99
2019-05-13T04:37:52.899Z,103071.20
2019-05-13T04:40:23.074Z,103067.14
2019-05-13T04:42:53.571Z,103068.19
2019-05-13T04:45:23.858Z,103064.48
2019-05-13T04:47:53.092Z,103067.52
2019-05-13T04:50:22.608Z,103070.21
2019-05-13T04:52:52.753Z,103067.53
2019-05-13T04:55:22.780Z,103073.30
2019-05-13T04:57:53.534Z,103078.92
2019-05-13T05:00:49.541Z,103078.05
2019-05-13T05:03:32.754Z,103079.34
2019-05-13T05:06:04.515Z,103085.70
2019-05-13T05:08:36.013Z,103089.52
2019-05-13T05:11:13.441Z,103086.59
2019-05-13T05:14:05.755Z,103085.86
2019-05-13T05:16:46.888Z,103081.83
2019-05-13T05:19:36.466Z,103084.00
2019-05-13T05:22:13.441Z,103081.84
2019-05-13T05:25:14.660Z,103084.14
2019-05-13T05:28:11.312Z,103084.63
2019-05-13T05:31:04.069Z,103085.22
2019-05-13T05:33:41.308Z,103093.84
2019-05-13T05:36:44.656Z,103089.89
2019-05-13T05:39:27.361Z,103085.20
2019-05-13T05:41:57.892Z,103083.55
2019-05-13T05:44:32.123Z,103077.22
2019-05-13T05:47:02.682Z,103078.13
2019-05-13T05:49:32.168Z,103079.39
2019-05-13T05:52:03.764Z,103083.23
2019-05-13T05:54:35.267Z,103091.18
2019-05-13T05:57:05.228Z,103091.65
2019-05-13T05:59:34.262Z,103095.28
2019-05-13T06:02:03.321Z,103099.88
2019-05-13T06:04:32.613Z,103093.79
2019-05-13T06:07:03.456Z,103102.89
2019-05-13T06:09:32.550Z,103098.41
2019-05-13T06:12:01.682Z,103101.55
2019-05-13T06:14:32.682Z,103097.02
2019-05-13T06:17:02.672Z,103100.25
2019-05-13T06:19:31.898Z,103093.48
2019-05-13T06:22:02.160Z,103100.25
2019-05-13T06:24:31.297Z,103098.46
2019-05-13T06:27:01.555Z,103098.68
2019-05-13T06:29:31.755Z,103099.26
2019-05-13T06:32:15.370Z,103105.60
2019-05-13T06:34:32.622Z,103110.89
2019-05-13T06:37:01.920Z,103108.55
2019-05-13T06:39:31.746Z,103113.26
2019-05-13T06:42:02.859Z,103111.77
2019-05-13T06:44:31.691Z,103102.52
2019-05-13T06:47:02.570Z,103107.70
2019-05-13T06:49:32.276Z,103105.16
2019-05-13T06:52:01.718Z,103107.88
2019-05-13T06:54:33.050Z,103103.36
2019-05-13T06:57:04.254Z,103103.45
2019-05-13T06:59:31.775Z,103107.58
2019-05-13T07:02:02.185Z,103108.86
2019-05-13T07:04:32.698Z,103111.10
2019-05-13T07:07:10.083Z,103110.31
2019-05-13T07:09:32.417Z,103114.40
2019-05-13T07:12:03.158Z,103113.61
2019-05-13T07:14:32.442Z,103108.37
2019-05-13T07:17:02.175Z,103108.45
2019-05-13T07:19:32.404Z,103119.50
2019-05-13T07:22:02.651Z,103109.86
2019-05-13T07:24:32.304Z,103105.84
2019-05-13T07:27:01.864Z,103107.61
2019-05-13T07:29:32.420Z,103106.02
2019-05-13T07:32:01.667Z,103106.20
2019-05-13T07:34:33.724Z,103112.09
2019-05-13T07:37:02.057Z,103105.89
2019-05-13T07:39:32.799Z,103102.23
2019-05-13T07:42:05.240Z,103100.33
2019-05-13T07:44:32.606Z,103109.78
2019-05-13T07:47:03.332Z,103110.06
2019-05-13T07:49:31.862Z,103110.55
2019-05-13T07:52:01.621Z,103107.89
2019-05-13T07:54:33.080Z,103102.30
2019-05-13T07:57:01.936Z,103111.75
2019-05-13T07:59:31.923Z,103113.51
2019-05-13T08:02:02.019Z,103107.42
2019-05-13T08:04:33.439Z,103108.95
2019-05-13T08:07:02.156Z,103103.98
2019-05-13T08:09:31.826Z,103108.69
2019-05-13T08:12:09.949Z,103102.88
2019-05-13T08:14:32.595Z,103104.80
2019-05-13T08:17:02.638Z,103107.73
2019-05-13T08:19:32.611Z,103107.94
2019-05-13T08:22:02.362Z,103107.14
2019-05-13T08:24:31.537Z,103116.75
2019-05-13T08:27:02.005Z,103115.52
2019-05-13T08:29:32.901Z,103113.15
2019-05-13T08:32:02.836Z,103118.37
2019-05-13T08:34:32.909Z,103116.58
2019-05-13T08:37:02.812Z,103110.08
2019-05-13T08:39:33.461Z,103119.98
2019-05-13T08:42:12.825Z,103122.06
2019-05-13T08:44:32.223Z,103117.52
2019-05-13T08:47:02.968Z,103110.97
2019-05-13T08:49:32.530Z,103108.45
2019-05-13T08:52:01.740Z,103111.97
2019-05-13T08:54:32.882Z,103112.28
2019-05-13T08:57:03.025Z,103113.09
2019-05-13T08:59:31.894Z,103114.36
2019-05-13T09:02:03.029Z,103116.00
2019-05-13T09:04:31.599Z,103111.13
2019-05-13T09:07:02.081Z,103104.48
2019-05-13T09:09:31.448Z,103100.17
2019-05-13T09:12:02.381Z,103109.47
2019-05-13T09:14:32.370Z,103106.34
2019-05-13T09:17:02.070Z,103099.78
2019-05-13T09:19:32.287Z,103102.27
2019-05-13T09:22:03.091Z,103105.55
2019-05-13T09:24:37.382Z,103106.59
2019-05-13T09:27:02.081Z,103102.13
2019-05-13T09:29:32.313Z,103111.25
2019-05-13T09:32:03.817Z,103103.16
2019-05-13T09:34:32.840Z,103105.90
2019-05-13T09:37:02.850Z,103098.43
2019-05-13T09:39:32.423Z,103097.23
2019-05-13T09:42:02.781Z,103100.85
2019-05-13T09:44:32.762Z,103107.24
2019-05-13T09:47:02.474Z,103101.30
2019-05-13T09:49:32.870Z,103103.86
2019-05-13T09:52:02.070Z,103093.03
2019-05-13T09:57:01.671Z,103094.87
2019-05-13T09:59:31.828Z,103092.52
2019-05-13T10:02:02.945Z,103104.31
2019-05-13T10:04:31.847Z,103099.00
2019-05-13T10:07:02.181Z,103095.14
2019-05-13T10:09:32.674Z,103101.83
2019-05-13T10:12:03.174Z,103101.20
2019-05-13T10:14:32.639Z,103096.08
2019-05-13T10:17:05.763Z,103094.28
2019-05-13T10:19:32.372Z,103088.68
2019-05-13T10:22:01.099Z,103086.73
2019-05-13T10:24:32.322Z,103091.58
2019-05-13T10:27:02.384Z,103089.62
2019-05-13T10:29:31.676Z,103088.40
2019-05-13T10:32:02.671Z,103082.89
2019-05-13T10:34:32.110Z,103079.98
2019-05-13T10:37:02.583Z,103085.09
2019-05-13T10:39:31.222Z,103078.70
2019-05-13T10:41:59.605Z,103086.63
2019-05-13T10:44:28.086Z,103088.38
2019-05-13T10:46:56.484Z,103079.44
2019-05-13T10:49:25.095Z,103084.67
2019-05-13T10:51:53.507Z,103076.52
2019-05-13T10:54:22.011Z,103074.89
2019-05-13T10:56:53.111Z,103060.48
2019-05-13T10:59:22.962Z,103066.29
2019-05-13T11:01:50.692Z,103064.73
2019-05-13T11:04:21.873Z,103058.73
2019-05-13T11:06:52.162Z,103046.31
2019-05-13T11:09:21.795Z,103050.69
2019-05-13T11:11:52.154Z,103055.22
2019-05-13T11:14:22.013Z,103059.53
2019-05-13T11:16:52.259Z,103037.19
2019-05-13T11:19:22.834Z,103039.23
2019-05-13T11:21:50.993Z,103027.61
2019-05-13T11:24:19.557Z,103027.68
2019-05-13T11:26:48.039Z,103029.69
2019-05-13T11:29:16.447Z,103025.59
2019-05-13T11:31:44.885Z,103018.64
2019-05-13T11:34:13.354Z,103014.30
2019-05-13T11:36:43.054Z,103023.98
2019-05-13T11:39:12.962Z,103018.38
2019-05-13T11:41:42.668Z,103010.89
2019-05-13T11:44:16.037Z,103021.08
2019-05-13T11:46:42.697Z,103014.62
2019-05-13T11:49:12.030Z,103012.93
2019-05-13T11:51:42.575Z,103018.19
2019-05-13T11:54:14.060Z,103010.36
2019-05-13T11:56:48.955Z,103011.53
2019-05-13T11:59:13.961Z,103005.28
2019-05-13T12:01:42.756Z,103011.17
2019-05-13T12:04:11.421Z,102994.69
2019-05-13T12:06:45.863Z,102999.20
2019-05-13T12:09:13.048Z,102991.56
2019-05-13T12:11:40.356Z,102994.48
2019-05-13T12:14:34.678Z,102984.67
2019-05-13T12:16:41.599Z,102989.14
2019-05-13T12:19:11.841Z,102993.41
2019-05-13T12:21:43.198Z,102984.39
2019-05-13T12:24:11.250Z,102983.50
2019-05-13T12:26:43.135Z,102976.22
2019-05-13T12:29:18.311Z,102970.99
2019-05-13T12:31:40.264Z,102966.33
2019-05-13T12:34:12.842Z,102957.61
2019-05-13T12:36:38.893Z,102955.97
2019-05-13T12:39:08.149Z,102959.16
2019-05-13T12:41:36.538Z,102968.37
2019-05-13T12:44:05.049Z,102962.78
2019-05-13T12:46:33.695Z,102957.22
2019-05-13T12:49:03.895Z,102955.12
2019-05-13T12:51:32.658Z,102952.43
2019-05-13T12:54:03.822Z,102956.39
2019-05-13T12:56:33.337Z,102945.05
2019-05-13T12:59:02.929Z,102944.26
2019-05-13T13:01:32.469Z,102936.33
2019-05-13T13:04:02.204Z,102939.94
2019-05-13T13:06:40.066Z,102937.34
2019-05-13T13:09:01.050Z,102936.77
2019-05-13T13:11:32.070Z,102942.41
2019-05-13T13:14:04.973Z,102928.08
2019-05-13T13:16:34.860Z,102928.44
2019-05-13T13:19:02.571Z,102924.20
2019-05-13T13:21:34.290Z,102921.45
2019-05-13T13:24:04.467Z,102926.98
2019-05-13T13:26:33.498Z,102924.31
2019-05-13T13:29:00.389Z,102919.68
2019-05-13T13:31:28.905Z,102910.98
2019-05-13T13:34:08.149Z,102912.25
2019-05-13T13:36:32.683Z,102898.52
2019-05-13T13:38:59.287Z,102908.27
2019-05-13T13:41:27.699Z,102903.89
2019-05-13T13:43:56.131Z,102895.58
2019-05-13T13:46:36.283Z,102900.32
2019-05-13T13:48:55.773Z,102890.65
2019-05-13T13:51:26.356Z,102889.34
2019-05-13T13:53:56.455Z,102885.02
2019-05-13T13:56:25.631Z,102881.59
2019-05-13T13:58:54.233Z,102889.07
2019-05-13T14:01:27.424Z,102886.03
2019-05-13T14:03:53.209Z,102880.58
2019-05-13T14:06:25.323Z,103104.48
2019-05-13T14:07:25.330Z,102895.77
2019-05-13T14:08:52.250Z,102885.41
2019-05-13T14:11:23.127Z,102881.18
2019-05-13T14:13:51.590Z,102877.28
2019-05-13T14:16:28.513Z,102867.50
2019-05-13T14:18:52.371Z,102871.61
2019-05-13T14:21:21.552Z,102878.88
2019-05-13T14:23:51.982Z,102861.83
2019-05-13T14:26:22.119Z,102858.30
2019-05-13T14:28:53.611Z,102853.90
2019-05-13T14:31:22.314Z,102855.30
2019-05-13T14:33:52.078Z,102856.67
2019-05-13T14:36:23.158Z,102848.96
2019-05-13T14:38:52.653Z,102849.92
2019-05-13T14:41:21.983Z,102847.09
2019-05-13T14:43:51.654Z,102837.16
2019-05-13T14:46:25.204Z,102848.03
2019-05-13T14:48:50.674Z,102838.10
2019-05-13T14:51:21.700Z,102839.50
2019-05-13T14:53:51.794Z,102830.66
2019-05-13T14:56:21.962Z,102839.27
2019-05-13T14:58:52.095Z,102838.55
2019-05-13T15:01:22.602Z,102842.60
2019-05-13T15:03:51.954Z,102833.82
2019-05-13T15:06:22.140Z,102835.52
2019-05-13T15:08:52.674Z,102831.13
2019-05-13T15:11:21.909Z,102831.08
2019-05-13T15:13:51.738Z,102833.03
2019-05-13T15:16:22.456Z,102824.89
2019-05-13T15:18:52.465Z,102819.27
2019-05-13T15:21:21.408Z,102815.42
2019-05-13T15:23:51.832Z,102812.48
2019-05-13T15:26:22.064Z,102808.01
2019-05-13T15:28:51.830Z,102817.47
2019-05-13T15:31:22.075Z,102818.33
2019-05-13T15:33:52.401Z,102668.81
2019-05-13T15:36:22.553Z,102822.53
2019-05-13T15:38:51.938Z,102814.97
2019-05-13T15:41:20.617Z,102813.77
2019-05-13T15:43:51.251Z,102804.25
2019-05-13T15:46:21.832Z,102813.60
2019-05-13T15:48:51.428Z,102805.10
2019-05-13T15:51:21.995Z,102797.44
2019-05-13T15:53:51.754Z,102805.78
2019-05-13T15:56:22.352Z,102803.22
2019-05-13T15:58:52.622Z,102789.88
2019-05-13T16:01:22.891Z,102793.47
2019-05-13T16:03:52.425Z,102796.97
2019-05-13T16:06:20.494Z,102785.97
2019-05-13T16:08:51.608Z,102794.55
2019-05-13T16:11:21.723Z,102787.14
2019-05-13T16:13:51.518Z,102774.82
2019-05-13T16:16:21.899Z,102771.88
2019-05-13T16:18:51.475Z,102781.83
2019-05-13T16:21:19.887Z,102785.27
2019-05-13T16:23:48.363Z,102784.92
2019-05-13T16:26:16.944Z,102782.75
2019-05-13T16:28:45.368Z,102782.33
2019-05-13T16:31:13.856Z,102776.36
2019-05-13T16:33:42.378Z,102780.89
2019-05-13T16:36:12.601Z,102782.25
2019-05-13T16:38:41.697Z,102772.16
2019-05-13T16:41:12.494Z,102774.74
2019-05-13T16:43:42.651Z,102779.86
2019-05-13T16:46:12.148Z,102772.28
2019-05-13T16:48:41.578Z,102764.98
2019-05-13T16:51:12.339Z,102767.20
2019-05-13T16:53:42.235Z,102761.85
2019-05-13T16:56:25.387Z,102766.41
2019-05-13T16:58:41.783Z,102765.84
2019-05-13T17:01:11.741Z,102766.45
2019-05-13T17:03:41.404Z,102769.97
2019-05-13T17:06:12.511Z,102768.87
2019-05-13T17:08:42.355Z,102762.52
2019-05-13T17:11:11.750Z,102770.97
2019-05-13T17:13:42.206Z,102766.51
2019-05-13T17:16:10.887Z,102758.56
2019-05-13T17:18:41.475Z,102760.25
2019-05-13T17:21:09.614Z,102758.20
2019-05-13T17:23:38.131Z,102764.93
2019-05-13T17:26:06.594Z,102766.16
2019-05-13T17:28:35.107Z,102755.37
2019-05-13T17:31:03.677Z,102762.92
2019-05-13T17:33:32.142Z,102760.80
2019-05-13T17:36:01.900Z,102766.06
2019-05-13T17:38:32.276Z,102760.03
2019-05-13T17:41:02.217Z,102757.53
2019-05-13T17:43:31.995Z,102759.74
2019-05-13T17:46:00.712Z,102756.83
2019-05-13T17:48:32.039Z,102745.58
2019-05-13T17:51:01.378Z,102750.00
2019-05-13T17:53:29.506Z,102749.73
2019-05-13T17:55:57.912Z,102745.34
2019-05-13T17:58:26.339Z,102745.88
2019-05-13T18:00:54.753Z,102749.28
2019-05-13T18:03:23.181Z,102743.20
2019-05-13T18:05:51.640Z,102745.72
2019-05-13T18:08:20.055Z,102749.94
2019-05-13T18:10:48.453Z,102754.48
2019-05-13T18:13:16.863Z,102745.85
2019-05-13T18:15:45.292Z,102735.06
2019-05-13T18:18:13.706Z,102736.52
2019-05-13T18:20:42.186Z,102736.66
2019-05-13T18:23:12.116Z,102735.56
2019-05-13T18:25:42.197Z,102739.98
2019-05-13T18:28:27.180Z,102735.23
2019-05-13T18:30:41.090Z,102732.77
2019-05-13T18:33:11.644Z,102731.72
2019-05-13T18:35:41.824Z,102728.27
2019-05-13T18:38:12.021Z,102734.27
2019-05-13T18:40:41.926Z,102730.72
2019-05-13T18:43:10.700Z,102721.87
2019-05-13T18:45:39.091Z,102726.50
2019-05-13T18:48:07.495Z,102731.87
2019-05-13T18:50:35.925Z,102729.59
2019-05-13T18:53:04.407Z,102729.73
2019-05-13T18:55:32.815Z,102730.47
2019-05-13T18:58:01.246Z,102733.79
2019-05-13T19:00:32.087Z,102734.45
2019-05-13T19:03:01.298Z,102735.23
2019-05-13T19:05:31.688Z,102735.98
2019-05-13T19:08:01.897Z,102738.26
2019-05-13T19:10:31.288Z,102742.45
2019-05-13T19:13:01.729Z,102743.77
2019-05-13T19:15:31.709Z,102748.63
2019-05-13T19:18:00.117Z,102752.80
2019-05-13T19:20:28.535Z,102757.14
2019-05-13T19:22:57.039Z,102760.94
2019-05-13T19:25:25.427Z,102754.45
2019-05-13T19:27:53.858Z,102754.96
2019-05-13T19:30:22.271Z,102761.59
2019-05-13T19:32:52.081Z,102756.11
2019-05-13T19:35:21.772Z,102763.92
2019-05-13T19:37:51.593Z,102766.58
2019-05-13T19:40:22.014Z,102769.47
2019-05-13T19:42:51.031Z,102763.34
2019-05-13T19:45:21.804Z,102764.44
2019-05-13T19:47:51.847Z,102761.00
2019-05-13T19:50:22.126Z,102767.02
2019-05-13T19:52:51.902Z,102763.05
2019-05-13T19:55:20.450Z,102769.92
2019-05-13T19:57:48.870Z,102764.38
2019-05-13T20:00:17.645Z,102765.87
2019-05-13T20:02:46.109Z,102761.11
2019-05-13T20:05:14.618Z,102766.15
2019-05-13T20:07:43.018Z,102761.52
2019-05-13T20:10:12.062Z,102763.38
2019-05-13T20:12:42.045Z,102764.44
2019-05-13T20:15:11.750Z,102767.06
2019-05-13T20:17:41.604Z,102766.44
2019-05-13T20:20:12.407Z,102762.08
2019-05-13T20:22:46.811Z,102765.63
2019-05-13T20:25:15.360Z,102762.27
2019-05-13T20:27:43.764Z,102767.44
2019-05-13T20:30:12.428Z,102763.83
2019-05-13T20:32:40.948Z,102768.72
2019-05-13T20:35:11.493Z,102766.86
2019-05-13T20:37:40.361Z,102772.00
2019-05-13T20:40:11.393Z,102771.36
2019-05-13T20:42:41.259Z,102777.62
2019-05-13T20:45:11.485Z,102773.98
2019-05-13T20:47:42.057Z,102775.89
2019-05-13T20:50:12.302Z,102782.44
2019-05-13T20:52:42.660Z,102781.69
2019-05-13T20:55:11.138Z,102778.92
2019-05-13T20:57:41.551Z,102783.64
2019-05-13T21:00:09.907Z,102783.70
2019-05-13T21:02:38.320Z,102781.66
2019-05-13T21:05:06.971Z,102781.89
2019-05-13T21:07:35.414Z,102793.67
2019-05-13T21:10:04.006Z,102786.33
2019-05-13T21:12:32.444Z,102786.55
2019-05-13T21:15:01.556Z,102794.38
2019-05-13T21:17:30.310Z,102786.76
2019-05-13T21:20:01.003Z,102783.84
2019-05-13T21:22:28.834Z,102794.46
2019-05-13T21:24:57.227Z,102792.16
2019-05-13T21:27:25.811Z,102790.41
2019-05-13T21:29:54.198Z,102786.26
2019-05-13T21:32:22.679Z,102789.06
2019-05-13T21:34:51.709Z,102789.06
2019-05-13T21:37:22.130Z,102789.79
2019-05-13T21:39:51.706Z,102785.94
2019-05-13T21:42:21.641Z,102786.61
2019-05-13T21:44:51.309Z,102778.39
2019-05-13T21:47:21.847Z,102784.45
2019-05-13T21:49:51.556Z,102786.88
2019-05-13T21:52:21.551Z,102790.06
2019-05-13T21:54:51.617Z,102793.98
2019-05-13T21:57:20.184Z,102788.27
2019-05-13T21:59:48.591Z,102785.47
2019-05-13T22:02:17.055Z,102778.06
2019-05-13T22:04:45.493Z,102783.95
2019-05-13T22:07:13.873Z,102777.19
2019-05-13T22:09:42.429Z,102785.87
2019-05-13T22:12:10.912Z,102784.73
2019-05-13T22:14:41.210Z,102784.02
2019-05-13T22:17:11.685Z,102782.09
2019-05-13T22:19:41.771Z,102779.53
2019-05-13T22:22:11.579Z,102775.98
2019-05-13T22:24:41.875Z,102774.59
2019-05-13T22:27:12.988Z,102768.65
2019-05-13T22:29:41.444Z,102773.59
2019-05-13T22:32:11.345Z,102767.77
2019-05-13T22:34:41.889Z,102770.97
2019-05-13T22:37:11.676Z,102768.53
2019-05-13T22:39:42.096Z,102766.31
2019-05-13T22:42:12.437Z,102763.50
2019-05-13T22:44:41.695Z,102766.78
2019-05-13T22:47:13.112Z,102769.23
2019-05-13T22:49:40.609Z,102760.06
2019-05-13T22:52:11.299Z,102759.66
2019-05-13T22:54:41.189Z,102764.97
2019-05-13T22:57:11.907Z,102762.63
2019-05-13T22:59:41.434Z,102758.79
2019-05-13T23:02:09.737Z,102760.29
2019-05-13T23:04:38.175Z,102758.20
2019-05-13T23:07:06.605Z,102759.02
2019-05-13T23:09:35.056Z,102750.98
2019-05-13T23:12:03.460Z,102755.98
2019-05-13T23:14:31.905Z,102761.03
2019-05-13T23:17:02.176Z,102757.88
2019-05-13T23:19:32.286Z,102759.41
2019-05-13T23:22:01.553Z,102762.19
2019-05-13T23:24:31.223Z,102763.06
2019-05-13T23:27:01.956Z,102757.20
2019-05-13T23:29:31.938Z,102751.13
2019-05-13T23:32:01.433Z,102750.12
2019-05-13T23:34:31.833Z,102751.64
2019-05-13T23:37:00.082Z,102750.05
2019-05-13T23:39:28.581Z,102750.11
2019-05-13T23:41:57.006Z,102749.23
2019-05-13T23:44:28.305Z,102747.12
2019-05-13T23:46:55.585Z,102744.63
2019-05-13T23:49:23.967Z,102742.42
2019-05-13T23:51:52.385Z,102738.34
2019-05-13T23:54:21.338Z,102737.88
2019-05-13T23:56:49.839Z,102736.13
2019-05-13T23:59:18.227Z,102735.19
